Welcome to Trans World Virtual Airlines!

Welcome TWVA's Newest Pilot:

TWA2297 Terrance P OLeary

Not a Trans World pilot yet?
Apply Now!




Sign-in with your pilot id or email, or register

Flight TWA525-A

  • Submitted By: Austin Hill
  • Departure Airport: Lambert-Saint Louis International Airport (KSTL)
  • Arrival Airport: Eppley Airfield (KOMA)
  • Aircraft: MD-83 (N44266TW)
  • Flight Time: 01.40
  • Date Submitted: 04/07/2018
  • Route: KSTL IRK LMN OVR KOMA
  • Status: Accepted
Flight Details
Gross Revenue:
(123 load / $ 95.00 per unit
$ 11, 685.00
Fuel Cost:
(11896 fuel used @ 0.8 / unit)
$ 9, 516.80

Additional Log Information:

View Log

FS[13:48] Aircraft Title - MD_83 Paint4
FS[13:48] Aircraft Model - MD83
FS[13:48] Flight Number TWA525-A
FS[13:48] Departure KSTL
FS[13:48] Destination KOMA
FS[13:48] Boarding
FS[13:59] Pushing Back
FS[14:04] Taxiing to Runway
FS[14:09] Taking Off
FS[14:10] Taking Off
FS[14:10] 175kts
FS[14:10] pitch angle 8 degrees
FS[14:10] 21654 (lbs) of fuel onboard
FS[14:10] Climbing
FS[14:26] TOC Reached
FS[14:26] Cruise 30000
FS[14:47] TOD Reached
FS[14:47] Descending
FS[14:58] On Approach
FS[15:15] Landing Rate -218fpm
FS[15:15] 11721 (lbs) of fuel onboard
FS[15:15] pitch angle 8 degrees
FS[15:16] Taxiing to Gate
FS[15:21] Arrived
FS[15:27] Max Sim Rate: 1x
FS[15:27] kACARS_Free Version 1.0.1.1

Comments

Commenter Comment
Austin Hill KSTL 071345Z 02010KT 10SM M03/M12 A3031 // KOMA 072001Z 36003KT 10SM M01/M09 A3031

Route Map